sensor_id;sensor_type;location;lat;lon;timestamp;P1;durP1;ratioP1;P2;durP2;ratioP2
1370;SDS011;14306;49.942;11.570;2024-01-06T00:01:30;13.55;;;8.32;;
1370;SDS011;14306;49.942;11.570;2024-01-06T00:03:04;14.05;;;9.43;;
1370;SDS011;14306;49.942;11.570;2024-01-06T00:04:37;18.40;;;8.80;;
1370;SDS011;14306;49.942;11.570;2024-01-06T00:06:11;15.48;;;9.02;;
1370;SDS011;14306;49.942;11.570;2024-01-06T00:07:45;18.92;;;11.20;;
1370;SDS011;14306;49.942;11.570;2024-01-06T00:09:20;21.10;;;9.85;;
1370;SDS011;14306;49.942;11.570;2024-01-06T00:10:53;19.25;;;11.40;;
1370;SDS011;14306;49.942;11.570;2024-01-06T00:12:28;20.88;;;10.13;;
1370;SDS011;14306;49.942;11.570;2024-01-06T00:14:04;17.45;;;10.95;;
1370;SDS011;14306;49.942;11.570;2024-01-06T00:15:37;17.77;;;10.43;;
1370;SDS011;14306;49.942;11.570;2024-01-06T00:17:11;17.75;;;10.20;;
1370;SDS011;14306;49.942;11.570;2024-01-06T00:18:44;16.52;;;10.15;;
1370;SDS011;14306;49.942;11.570;2024-01-06T00:20:19;14.68;;;9.70;;
1370;SDS011;14306;49.942;11.570;2024-01-06T00:21:53;11.48;;;8.60;;
1370;SDS011;14306;49.942;11.570;2024-01-06T00:23:27;17.88;;;10.00;;
1370;SDS011;14306;49.942;11.570;2024-01-06T00:25:01;14.15;;;9.27;;
1370;SDS011;14306;49.942;11.570;2024-01-06T00:26:34;12.38;;;8.20;;
1370;SDS011;14306;49.942;11.570;2024-01-06T00:28:08;12.88;;;8.75;;
1370;SDS011;14306;49.942;11.570;2024-01-06T00:29:43;14.82;;;8.70;;
1370;SDS011;14306;49.942;11.570;2024-01-06T00:31:17;13.80;;;8.85;;
1370;SDS011;14306;49.942;11.570;2024-01-06T00:32:51;15.18;;;9.05;;
1370;SDS011;14306;49.942;11.570;2024-01-06T00:34:25;12.40;;;8.32;;
1370;SDS011;14306;49.942;11.570;2024-01-06T00:35:59;16.05;;;8.55;;
1370;SDS011;14306;49.942;11.570;2024-01-06T00:37:32;14.63;;;9.73;;
1370;SDS011;14306;49.942;11.570;2024-01-06T00:39:06;15.40;;;9.63;;
1370;SDS011;14306;49.942;11.570;2024-01-06T00:40:41;15.50;;;8.95;;
1370;SDS011;14306;49.942;11.570;2024-01-06T00:42:15;17.13;;;9.00;;
1370;SDS011;14306;49.942;11.570;2024-01-06T00:43:48;14.57;;;9.60;;
1370;SDS011;14306;49.942;11.570;2024-01-06T00:45:23;17.70;;;9.35;;
1370;SDS011;14306;49.942;11.570;2024-01-06T00:46:56;12.77;;;8.35;;
1370;SDS011;14306;49.942;11.570;2024-01-06T00:48:30;14.63;;;8.88;;
1370;SDS011;14306;49.942;11.570;2024-01-06T00:50:04;16.73;;;9.40;;
1370;SDS011;14306;49.942;11.570;2024-01-06T00:51:38;15.27;;;9.25;;
1370;SDS011;14306;49.942;11.570;2024-01-06T00:53:12;16.48;;;9.15;;
1370;SDS011;14306;49.942;11.570;2024-01-06T00:54:46;18.23;;;10.18;;
1370;SDS011;14306;49.942;11.570;2024-01-06T00:56:20;19.65;;;9.15;;
1370;SDS011;14306;49.942;11.570;2024-01-06T00:57:54;17.05;;;11.38;;
1370;SDS011;14306;49.942;11.570;2024-01-06T00:59:28;23.70;;;12.48;;
1370;SDS011;14306;49.942;11.570;2024-01-06T01:01:04;13.63;;;9.80;;
1370;SDS011;14306;49.942;11.570;2024-01-06T01:02:37;17.73;;;10.35;;
1370;SDS011;14306;49.942;11.570;2024-01-06T01:04:11;15.55;;;9.98;;
1370;SDS011;14306;49.942;11.570;2024-01-06T01:05:49;19.00;;;10.45;;
1370;SDS011;14306;49.942;11.570;2024-01-06T01:07:22;19.05;;;12.05;;
1370;SDS011;14306;49.942;11.570;2024-01-06T01:08:56;14.32;;;9.43;;
1370;SDS011;14306;49.942;11.570;2024-01-06T01:10:29;19.75;;;9.95;;
1370;SDS011;14306;49.942;11.570;2024-01-06T01:12:03;13.50;;;9.23;;
1370;SDS011;14306;49.942;11.570;2024-01-06T01:13:37;18.30;;;9.70;;
1370;SDS011;14306;49.942;11.570;2024-01-06T01:15:11;13.15;;;8.82;;
1370;SDS011;14306;49.942;11.570;2024-01-06T01:16:45;14.32;;;9.63;;
1370;SDS011;14306;49.942;11.570;2024-01-06T01:18:20;19.45;;;9.30;;
1370;SDS011;14306;49.942;11.570;2024-01-06T01:19:53;15.15;;;9.60;;
1370;SDS011;14306;49.942;11.570;2024-01-06T01:21:27;12.43;;;8.15;;
1370;SDS011;14306;49.942;11.570;2024-01-06T01:23:00;15.32;;;9.45;;
1370;SDS011;14306;49.942;11.570;2024-01-06T01:24:35;20.38;;;9.38;;
1370;SDS011;14306;49.942;11.570;2024-01-06T01:26:08;15.13;;;9.50;;
1370;SDS011;14306;49.942;11.570;2024-01-06T01:27:42;14.52;;;8.85;;
1370;SDS011;14306;49.942;11.570;2024-01-06T01:29:15;15.52;;;11.30;;
1370;SDS011;14306;49.942;11.570;2024-01-06T01:30:53;17.73;;;11.07;;
1370;SDS011;14306;49.942;11.570;2024-01-06T01:32:27;14.43;;;10.23;;
1370;SDS011;14306;49.942;11.570;2024-01-06T01:34:01;13.90;;;9.75;;
1370;SDS011;14306;49.942;11.570;2024-01-06T01:35:34;20.60;;;10.07;;
1370;SDS011;14306;49.942;11.570;2024-01-06T01:37:09;17.17;;;10.40;;
1370;SDS011;14306;49.942;11.570;2024-01-06T01:38:42;17.48;;;10.57;;
1370;SDS011;14306;49.942;11.570;2024-01-06T01:40:16;15.73;;;10.02;;
1370;SDS011;14306;49.942;11.570;2024-01-06T01:41:49;15.30;;;10.00;;
1370;SDS011;14306;49.942;11.570;2024-01-06T01:43:24;15.48;;;9.65;;
1370;SDS011;14306;49.942;11.570;2024-01-06T01:44:57;25.67;;;9.85;;
1370;SDS011;14306;49.942;11.570;2024-01-06T01:46:31;18.30;;;11.20;;
1370;SDS011;14306;49.942;11.570;2024-01-06T01:48:06;15.48;;;10.23;;
1370;SDS011;14306;49.942;11.570;2024-01-06T01:49:41;14.38;;;9.32;;
1370;SDS011;14306;49.942;11.570;2024-01-06T01:51:14;15.50;;;10.35;;
1370;SDS011;14306;49.942;11.570;2024-01-06T01:52:48;18.92;;;10.10;;
1370;SDS011;14306;49.942;11.570;2024-01-06T01:54:21;14.38;;;8.20;;
1370;SDS011;14306;49.942;11.570;2024-01-06T01:55:56;18.08;;;9.65;;
1370;SDS011;14306;49.942;11.570;2024-01-06T01:57:29;14.75;;;8.60;;
1370;SDS011;14306;49.942;11.570;2024-01-06T01:59:05;16.02;;;9.98;;
1370;SDS011;14306;49.942;11.570;2024-01-06T02:00:43;14.63;;;10.13;;
1370;SDS011;14306;49.942;11.570;2024-01-06T02:02:16;19.73;;;10.75;;
1370;SDS011;14306;49.942;11.570;2024-01-06T02:03:53;18.02;;;12.32;;
1370;SDS011;14306;49.942;11.570;2024-01-06T02:05:26;19.25;;;12.07;;
1370;SDS011;14306;49.942;11.570;2024-01-06T02:07:00;20.98;;;11.32;;
1370;SDS011;14306;49.942;11.570;2024-01-06T02:08:33;18.77;;;10.80;;
1370;SDS011;14306;49.942;11.570;2024-01-06T02:10:08;16.00;;;10.27;;
1370;SDS011;14306;49.942;11.570;2024-01-06T02:11:41;15.20;;;9.95;;
1370;SDS011;14306;49.942;11.570;2024-01-06T02:13:15;15.48;;;10.52;;
1370;SDS011;14306;49.942;11.570;2024-01-06T02:14:48;23.40;;;13.00;;
1370;SDS011;14306;49.942;11.570;2024-01-06T02:16:22;22.73;;;14.88;;
1370;SDS011;14306;49.942;11.570;2024-01-06T02:17:56;18.95;;;11.93;;
1370;SDS011;14306;49.942;11.570;2024-01-06T02:19:32;20.23;;;12.75;;
1370;SDS011;14306;49.942;11.570;2024-01-06T02:21:06;15.43;;;10.90;;
1370;SDS011;14306;49.942;11.570;2024-01-06T02:22:41;12.10;;;8.45;;
1370;SDS011;14306;49.942;11.570;2024-01-06T02:24:15;16.73;;;10.07;;
1370;SDS011;14306;49.942;11.570;2024-01-06T02:25:48;17.30;;;10.27;;
1370;SDS011;14306;49.942;11.570;2024-01-06T02:27:23;15.95;;;9.60;;
1370;SDS011;14306;49.942;11.570;2024-01-06T02:28:56;17.58;;;11.15;;
1370;SDS011;14306;49.942;11.570;2024-01-06T02:30:30;12.60;;;8.75;;
1370;SDS011;14306;49.942;11.570;2024-01-06T02:32:05;14.43;;;8.88;;
1370;SDS011;14306;49.942;11.570;2024-01-06T02:33:38;15.20;;;9.75;;
1370;SDS011;14306;49.942;11.570;2024-01-06T02:35:12;15.93;;;9.07;;
1370;SDS011;14306;49.942;11.570;2024-01-06T02:36:45;17.60;;;9.63;;
1370;SDS011;14306;49.942;11.570;2024-01-06T02:38:21;15.27;;;8.05;;
1370;SDS011;14306;49.942;11.570;2024-01-06T02:39:54;12.35;;;8.35;;
1370;SDS011;14306;49.942;11.570;2024-01-06T02:41:28;14.77;;;8.48;;
1370;SDS011;14306;49.942;11.570;2024-01-06T02:43:01;14.15;;;9.13;;
1370;SDS011;14306;49.942;11.570;2024-01-06T02:44:35;14.75;;;9.25;;
1370;SDS011;14306;49.942;11.570;2024-01-06T02:46:08;13.43;;;9.55;;
1370;SDS011;14306;49.942;11.570;2024-01-06T02:47:42;16.95;;;9.00;;
1370;SDS011;14306;49.942;11.570;2024-01-06T02:49:15;15.55;;;8.95;;
1370;SDS011;14306;49.942;11.570;2024-01-06T02:50:50;13.88;;;9.23;;
1370;SDS011;14306;49.942;11.570;2024-01-06T02:55:34;16.73;;;9.43;;
1370;SDS011;14306;49.942;11.570;2024-01-06T03:33:59;20.33;;;11.70;;
1370;SDS011;14306;49.942;11.570;2024-01-06T03:38:40;17.00;;;10.80;;
1370;SDS011;14306;49.942;11.570;2024-01-06T03:40:14;21.65;;;12.05;;
1370;SDS011;14306;49.942;11.570;2024-01-06T03:41:48;20.15;;;10.55;;
1370;SDS011;14306;49.942;11.570;2024-01-06T03:43:28;25.23;;;11.23;;
1370;SDS011;14306;49.942;11.570;2024-01-06T20:02:23;23.47;;;14.87;;
1370;SDS011;14306;49.942;11.570;2024-01-06T20:04:07;25.02;;;14.18;;
1370;SDS011;14306;49.942;11.570;2024-01-06T20:05:44;28.95;;;15.40;;
1370;SDS011;14306;49.942;11.570;2024-01-06T20:07:19;28.80;;;15.05;;
1370;SDS011;14306;49.942;11.570;2024-01-06T20:08:59;27.13;;;14.73;;
1370;SDS011;14306;49.942;11.570;2024-01-06T20:10:34;26.67;;;15.80;;
1370;SDS011;14306;49.942;11.570;2024-01-06T20:12:07;26.65;;;13.77;;
1370;SDS011;14306;49.942;11.570;2024-01-06T20:13:41;29.35;;;16.77;;
1370;SDS011;14306;49.942;11.570;2024-01-06T20:15:15;22.20;;;15.65;;
1370;SDS011;14306;49.942;11.570;2024-01-06T20:16:50;28.42;;;15.18;;
1370;SDS011;14306;49.942;11.570;2024-01-06T20:18:27;20.70;;;14.73;;
1370;SDS011;14306;49.942;11.570;2024-01-06T20:20:03;27.33;;;15.25;;
1370;SDS011;14306;49.942;11.570;2024-01-06T20:21:38;21.35;;;13.45;;
1370;SDS011;14306;49.942;11.570;2024-01-06T20:23:13;26.02;;;14.82;;
1370;SDS011;14306;49.942;11.570;2024-01-06T20:24:46;26.00;;;14.77;;
1370;SDS011;14306;49.942;11.570;2024-01-06T20:26:21;19.40;;;12.60;;
1370;SDS011;14306;49.942;11.570;2024-01-06T20:27:55;24.38;;;13.23;;
1370;SDS011;14306;49.942;11.570;2024-01-06T20:29:33;24.38;;;13.63;;
1370;SDS011;14306;49.942;11.570;2024-01-06T20:31:08;20.95;;;12.77;;
1370;SDS011;14306;49.942;11.570;2024-01-06T20:32:43;22.55;;;14.02;;
1370;SDS011;14306;49.942;11.570;2024-01-06T20:34:19;25.75;;;14.35;;
1370;SDS011;14306;49.942;11.570;2024-01-06T20:35:52;25.63;;;14.18;;
1370;SDS011;14306;49.942;11.570;2024-01-06T20:37:27;21.13;;;13.02;;
1370;SDS011;14306;49.942;11.570;2024-01-06T20:39:00;21.15;;;12.98;;
1370;SDS011;14306;49.942;11.570;2024-01-06T20:40:34;21.33;;;13.20;;
1370;SDS011;14306;49.942;11.570;2024-01-06T20:42:07;22.05;;;13.35;;
1370;SDS011;14306;49.942;11.570;2024-01-06T20:43:41;24.17;;;14.18;;
1370;SDS011;14306;49.942;11.570;2024-01-06T20:45:15;26.60;;;13.50;;
1370;SDS011;14306;49.942;11.570;2024-01-06T20:46:50;21.90;;;11.95;;
1370;SDS011;14306;49.942;11.570;2024-01-06T20:48:26;16.65;;;10.90;;
1370;SDS011;14306;49.942;11.570;2024-01-06T20:50:02;18.90;;;11.63;;
1370;SDS011;14306;49.942;11.570;2024-01-06T20:51:35;20.55;;;12.50;;
1370;SDS011;14306;49.942;11.570;2024-01-06T20:53:09;20.33;;;11.30;;
1370;SDS011;14306;49.942;11.570;2024-01-06T20:54:43;17.05;;;9.63;;
1370;SDS011;14306;49.942;11.570;2024-01-06T20:56:17;19.58;;;11.80;;
1370;SDS011;14306;49.942;11.570;2024-01-06T20:57:51;17.50;;;11.02;;
1370;SDS011;14306;49.942;11.570;2024-01-06T20:59:25;20.17;;;11.18;;
1370;SDS011;14306;49.942;11.570;2024-01-06T21:01:01;17.60;;;10.95;;
1370;SDS011;14306;49.942;11.570;2024-01-06T21:02:36;19.83;;;11.90;;
1370;SDS011;14306;49.942;11.570;2024-01-06T21:04:10;14.85;;;11.32;;
1370;SDS011;14306;49.942;11.570;2024-01-06T21:05:45;16.88;;;12.25;;
1370;SDS011;14306;49.942;11.570;2024-01-06T21:07:19;16.17;;;11.35;;
1370;SDS011;14306;49.942;11.570;2024-01-06T21:08:53;19.33;;;12.80;;
1370;SDS011;14306;49.942;11.570;2024-01-06T21:10:27;19.98;;;12.70;;
1370;SDS011;14306;49.942;11.570;2024-01-06T21:12:01;25.13;;;14.20;;
1370;SDS011;14306;49.942;11.570;2024-01-06T21:13:36;26.60;;;14.68;;
1370;SDS011;14306;49.942;11.570;2024-01-06T21:15:10;27.00;;;14.02;;
1370;SDS011;14306;49.942;11.570;2024-01-06T21:16:46;21.17;;;12.98;;
1370;SDS011;14306;49.942;11.570;2024-01-06T21:18:19;30.30;;;15.48;;
1370;SDS011;14306;49.942;11.570;2024-01-06T21:19:54;27.05;;;13.95;;
1370;SDS011;14306;49.942;11.570;2024-01-06T21:21:29;16.20;;;11.80;;
1370;SDS011;14306;49.942;11.570;2024-01-06T21:23:03;22.95;;;12.48;;
1370;SDS011;14306;49.942;11.570;2024-01-06T21:24:37;19.45;;;13.00;;
1370;SDS011;14306;49.942;11.570;2024-01-06T21:26:12;17.40;;;12.45;;
1370;SDS011;14306;49.942;11.570;2024-01-06T21:27:45;28.50;;;14.48;;
1370;SDS011;14306;49.942;11.570;2024-01-06T21:29:19;17.98;;;11.85;;
1370;SDS011;14306;49.942;11.570;2024-01-06T21:30:53;16.17;;;11.50;;
1370;SDS011;14306;49.942;11.570;2024-01-06T21:32:28;18.50;;;12.90;;
1370;SDS011;14306;49.942;11.570;2024-01-06T21:34:01;16.70;;;11.82;;
1370;SDS011;14306;49.942;11.570;2024-01-06T21:35:36;17.85;;;11.65;;
1370;SDS011;14306;49.942;11.570;2024-01-06T21:37:10;24.05;;;12.20;;
1370;SDS011;14306;49.942;11.570;2024-01-06T21:38:45;20.85;;;13.20;;
1370;SDS011;14306;49.942;11.570;2024-01-06T21:40:19;18.58;;;12.30;;
1370;SDS011;14306;49.942;11.570;2024-01-06T21:41:52;20.77;;;12.10;;
1370;SDS011;14306;49.942;11.570;2024-01-06T21:43:27;21.02;;;12.07;;
1370;SDS011;14306;49.942;11.570;2024-01-06T21:45:01;21.15;;;12.77;;
1370;SDS011;14306;49.942;11.570;2024-01-06T21:46:36;20.80;;;12.82;;
1370;SDS011;14306;49.942;11.570;2024-01-06T21:48:11;19.60;;;12.43;;
1370;SDS011;14306;49.942;11.570;2024-01-06T21:49:46;18.13;;;12.52;;
1370;SDS011;14306;49.942;11.570;2024-01-06T21:51:20;22.33;;;13.02;;
1370;SDS011;14306;49.942;11.570;2024-01-06T21:52:56;24.52;;;13.20;;
1370;SDS011;14306;49.942;11.570;2024-01-06T21:54:29;21.63;;;13.40;;
1370;SDS011;14306;49.942;11.570;2024-01-06T21:56:03;19.40;;;13.00;;
1370;SDS011;14306;49.942;11.570;2024-01-06T21:57:37;26.98;;;14.00;;
1370;SDS011;14306;49.942;11.570;2024-01-06T21:59:11;25.30;;;14.93;;
1370;SDS011;14306;49.942;11.570;2024-01-06T22:00:45;25.70;;;13.20;;
1370;SDS011;14306;49.942;11.570;2024-01-06T22:02:21;18.92;;;12.77;;
1370;SDS011;14306;49.942;11.570;2024-01-06T22:03:54;19.88;;;12.82;;
1370;SDS011;14306;49.942;11.570;2024-01-06T22:05:28;23.85;;;13.15;;
1370;SDS011;14306;49.942;11.570;2024-01-06T22:07:01;22.42;;;14.13;;
1370;SDS011;14306;49.942;11.570;2024-01-06T22:08:37;21.73;;;14.15;;
1370;SDS011;14306;49.942;11.570;2024-01-06T22:10:12;22.40;;;13.65;;
1370;SDS011;14306;49.942;11.570;2024-01-06T22:11:45;24.00;;;14.43;;
1370;SDS011;14306;49.942;11.570;2024-01-06T22:13:21;24.77;;;14.23;;
1370;SDS011;14306;49.942;11.570;2024-01-06T22:14:54;20.55;;;13.20;;
1370;SDS011;14306;49.942;11.570;2024-01-06T22:16:29;22.73;;;14.88;;
1370;SDS011;14306;49.942;11.570;2024-01-06T22:18:03;23.23;;;13.35;;
1370;SDS011;14306;49.942;11.570;2024-01-06T22:19:38;23.65;;;15.25;;
1370;SDS011;14306;49.942;11.570;2024-01-06T22:21:11;26.50;;;15.55;;
1370;SDS011;14306;49.942;11.570;2024-01-06T22:22:46;23.23;;;14.75;;
1370;SDS011;14306;49.942;11.570;2024-01-06T22:24:21;29.50;;;16.10;;
1370;SDS011;14306;49.942;11.570;2024-01-06T22:25:55;27.10;;;15.75;;
1370;SDS011;14306;49.942;11.570;2024-01-06T22:27:28;24.48;;;16.30;;
1370;SDS011;14306;49.942;11.570;2024-01-06T22:29:03;25.45;;;14.48;;
1370;SDS011;14306;49.942;11.570;2024-01-06T22:30:37;29.90;;;16.45;;
1370;SDS011;14306;49.942;11.570;2024-01-06T22:32:11;29.65;;;17.75;;
1370;SDS011;14306;49.942;11.570;2024-01-06T22:33:44;26.50;;;16.23;;
1370;SDS011;14306;49.942;11.570;2024-01-06T22:35:19;32.50;;;18.25;;
1370;SDS011;14306;49.942;11.570;2024-01-06T22:36:52;28.52;;;15.40;;
1370;SDS011;14306;49.942;11.570;2024-01-06T22:38:28;25.80;;;16.70;;
1370;SDS011;14306;49.942;11.570;2024-01-06T22:40:16;32.38;;;17.33;;
1370;SDS011;14306;49.942;11.570;2024-01-06T22:41:53;35.20;;;17.27;;
1370;SDS011;14306;49.942;11.570;2024-01-06T22:43:26;24.80;;;16.35;;
1370;SDS011;14306;49.942;11.570;2024-01-06T22:45:00;29.13;;;15.77;;
1370;SDS011;14306;49.942;11.570;2024-01-06T22:46:34;26.55;;;16.55;;
1370;SDS011;14306;49.942;11.570;2024-01-06T22:48:09;31.88;;;17.30;;
1370;SDS011;14306;49.942;11.570;2024-01-06T22:49:43;28.05;;;17.67;;
1370;SDS011;14306;49.942;11.570;2024-01-06T22:51:16;22.80;;;16.05;;
1370;SDS011;14306;49.942;11.570;2024-01-06T22:52:50;32.65;;;17.25;;
1370;SDS011;14306;49.942;11.570;2024-01-06T22:54:25;28.73;;;17.50;;
1370;SDS011;14306;49.942;11.570;2024-01-06T22:56:00;22.58;;;14.90;;
1370;SDS011;14306;49.942;11.570;2024-01-06T22:57:34;29.65;;;16.45;;
1370;SDS011;14306;49.942;11.570;2024-01-06T22:59:07;27.60;;;15.48;;
1370;SDS011;14306;49.942;11.570;2024-01-06T23:00:42;27.77;;;16.10;;
1370;SDS011;14306;49.942;11.570;2024-01-06T23:02:17;26.73;;;15.23;;
1370;SDS011;14306;49.942;11.570;2024-01-06T23:03:50;29.10;;;14.93;;
1370;SDS011;14306;49.942;11.570;2024-01-06T23:05:25;21.92;;;13.45;;
1370;SDS011;14306;49.942;11.570;2024-01-06T23:06:58;22.02;;;13.80;;
1370;SDS011;14306;49.942;11.570;2024-01-06T23:08:32;22.98;;;12.13;;
1370;SDS011;14306;49.942;11.570;2024-01-06T23:10:06;25.02;;;13.27;;
1370;SDS011;14306;49.942;11.570;2024-01-06T23:11:42;24.88;;;14.57;;
1370;SDS011;14306;49.942;11.570;2024-01-06T23:13:16;19.92;;;12.02;;
1370;SDS011;14306;49.942;11.570;2024-01-06T23:14:51;18.10;;;12.40;;
1370;SDS011;14306;49.942;11.570;2024-01-06T23:16:25;22.38;;;12.48;;
1370;SDS011;14306;49.942;11.570;2024-01-06T23:17:58;23.30;;;14.43;;
1370;SDS011;14306;49.942;11.570;2024-01-06T23:19:33;21.13;;;13.05;;
1370;SDS011;14306;49.942;11.570;2024-01-06T23:21:07;21.52;;;12.05;;
1370;SDS011;14306;49.942;11.570;2024-01-06T23:22:41;17.48;;;11.20;;
1370;SDS011;14306;49.942;11.570;2024-01-06T23:24:16;17.65;;;10.43;;
1370;SDS011;14306;49.942;11.570;2024-01-06T23:25:51;18.70;;;10.52;;
1370;SDS011;14306;49.942;11.570;2024-01-06T23:27:26;20.30;;;11.55;;
1370;SDS011;14306;49.942;11.570;2024-01-06T23:29:00;18.75;;;12.45;;
1370;SDS011;14306;49.942;11.570;2024-01-06T23:30:34;17.05;;;10.90;;
1370;SDS011;14306;49.942;11.570;2024-01-06T23:32:09;14.50;;;10.45;;
1370;SDS011;14306;49.942;11.570;2024-01-06T23:33:42;17.63;;;11.50;;
1370;SDS011;14306;49.942;11.570;2024-01-06T23:35:16;17.90;;;12.27;;
1370;SDS011;14306;49.942;11.570;2024-01-06T23:36:51;15.55;;;9.90;;
1370;SDS011;14306;49.942;11.570;2024-01-06T23:38:24;15.95;;;10.40;;
1370;SDS011;14306;49.942;11.570;2024-01-06T23:39:58;16.48;;;10.80;;
1370;SDS011;14306;49.942;11.570;2024-01-06T23:41:31;16.45;;;10.40;;
1370;SDS011;14306;49.942;11.570;2024-01-06T23:43:07;18.42;;;10.70;;
1370;SDS011;14306;49.942;11.570;2024-01-06T23:44:42;18.00;;;10.30;;
1370;SDS011;14306;49.942;11.570;2024-01-06T23:46:16;17.23;;;9.48;;
1370;SDS011;14306;49.942;11.570;2024-01-06T23:47:49;19.25;;;10.45;;
1370;SDS011;14306;49.942;11.570;2024-01-06T23:49:25;18.92;;;10.70;;
1370;SDS011;14306;49.942;11.570;2024-01-06T23:50:59;17.23;;;10.93;;
1370;SDS011;14306;49.942;11.570;2024-01-06T23:52:32;17.60;;;10.82;;
1370;SDS011;14306;49.942;11.570;2024-01-06T23:54:07;20.35;;;10.32;;
1370;SDS011;14306;49.942;11.570;2024-01-06T23:55:40;20.73;;;10.93;;
1370;SDS011;14306;49.942;11.570;2024-01-06T23:57:14;18.77;;;11.02;;
1370;SDS011;14306;49.942;11.570;2024-01-06T23:58:49;19.45;;;11.05;;
